Map

Track Data

SID SEASON NUMBER BASIN SUBBASIN NAME ISO_TIME NATURE LAT LON WMO_WIND WMO_PRES WMO_AGENCY TRACK_TYPE DIST2LAND LANDFALL IFLAG USA_AGENCY USA_ATCF_ID USA_LAT USA_LON USA_RECORD USA_STATUS USA_WIND USA_PRES USA_SSHS USA_R34_NE USA_R34_SE USA_R34_SW USA_R34_NW USA_R50_NE USA_R50_SE USA_R50_SW USA_R50_NW USA_R64_NE USA_R64_SE USA_R64_SW USA_R64_NW USA_POCI USA_ROCI USA_RMW USA_EYE TOKYO_LAT TOKYO_LON TOKYO_GRADE TOKYO_WIND TOKYO_PRES TOKYO_R50_DIR TOKYO_R50_LONG TOKYO_R50_SHORT TOKYO_R30_DIR TOKYO_R30_LONG TOKYO_R30_SHORT TOKYO_LAND CMA_LAT CMA_LON CMA_CAT CMA_WIND CMA_PRES HKO_LAT HKO_LON HKO_CAT HKO_WIND HKO_PRES NEWDELHI_LAT NEWDELHI_LON NEWDELHI_GRADE NEWDELHI_WIND NEWDELHI_PRES NEWDELHI_CI NEWDELHI_DP NEWDELHI_POCI REUNION_LAT REUNION_LON REUNION_TYPE REUNION_WIND REUNION_PRES REUNION_TNUM REUNION_CI REUNION_RMW REUNION_R34_NE REUNION_R34_SE REUNION_R34_SW REUNION_R34_NW REUNION_R50_NE REUNION_R50_SE REUNION_R50_SW REUNION_R50_NW REUNION_R64_NE REUNION_R64_SE REUNION_R64_SW REUNION_R64_NW BOM_LAT BOM_LON BOM_TYPE BOM_WIND BOM_PRES BOM_TNUM BOM_CI BOM_RMW BOM_R34_NE BOM_R34_SE BOM_R34_SW BOM_R34_NW BOM_R50_NE BOM_R50_SE BOM_R50_SW BOM_R50_NW BOM_R64_NE BOM_R64_SE BOM_R64_SW BOM_R64_NW BOM_ROCI BOM_POCI BOM_EYE BOM_POS_METHOD BOM_PRES_METHOD NADI_LAT NADI_LON NADI_CAT NADI_WIND NADI_PRES WELLINGTON_LAT WELLINGTON_LON WELLINGTON_WIND WELLINGTON_PRES DS824_LAT DS824_LON DS824_STAGE DS824_WIND DS824_PRES TD9636_LAT TD9636_LON TD9636_STAGE TD9636_WIND TD9636_PRES TD9635_LAT TD9635_LON TD9635_WIND TD9635_PRES TD9635_ROCI NEUMANN_LAT NEUMANN_LON NEUMANN_CLASS NEUMANN_WIND NEUMANN_PRES MLC_LAT MLC_LON MLC_CLASS MLC_WIND MLC_PRES USA_GUST BOM_GUST BOM_GUST_PER REUNION_GUST REUNION_GUST_PER USA_SEAHGT USA_SEARAD_NE USA_SEARAD_SE USA_SEARAD_SW USA_SEARAD_NW STORM_SPEED STORM_DIR
2009291N16111 2009 84 WP MM NOT_NAMED 2009-10-18 00:00:00 TS 15.5000 111.200 main 242 237 __O___________ -1 15.5000 111.200 1 25 1000 4 321
2009291N16111 2009 84 WP MM NOT_NAMED 2009-10-18 03:00:00 TS 15.6750 111.060 main 242 224 __P___________ -1 15.6750 111.060 1 25 1000 4 316
2009291N16111 2009 84 WP MM NOT_NAMED 2009-10-18 06:00:00 TS 15.8000 110.900 main 224 204 __O___________ -1 15.8000 110.900 1 25 1000 4 298
2009291N16111 2009 84 WP MM NOT_NAMED 2009-10-18 09:00:00 TS 15.8500 110.720 main 208 198 __P___________ -1 15.8500 110.720 1 27 1000 3 289
2009291N16111 2009 84 WP MM NOT_NAMED 2009-10-18 12:00:00 TS 15.9000 110.600 main 198 198 __O___________ -1 15.9000 110.600 1 29 1000 2 330
2009291N16111 2009 84 WP MM NOT_NAMED 2009-10-18 15:00:00 TS 16.0275 110.612 main 202 202 __P___________ -1 16.0275 110.612 1 29 1000 3 17
2009291N16111 2009 84 WP MM NOT_NAMED 2009-10-18 18:00:00 TS 16.2000 110.700 main 222 222 __O___________ -1 16.2000 110.700 1 29 1000 4 31
2009291N16111 2009 84 WP MM NOT_NAMED 2009-10-18 21:00:00 TS 16.3850 110.837 main 232 213 __P___________ -1 16.3850 110.837 1 29 1000 4 13
2009291N16111 2009 84 WP MM NOT_NAMED 2009-10-19 00:00:00 TS 16.6000 110.800 main 213 183 __OO__________ -1 16.6000 110.900 1 29 1000 16.6000 110.400 TD 25 1002 5 336
2009291N16111 2009 84 WP MM NOT_NAMED 2009-10-19 03:00:00 TS 16.8609 110.619 main 173 149 __PP__________ -1 16.8576 110.730 1 29 1000 16.8675 110.398 TD 25 1001 6 327
2009291N16111 2009 84 WP MM NOT_NAMED 2009-10-19 06:00:00 TS 17.1000 110.457 main 149 125 __OO__________ -1 17.1000 110.500 1 29 1000 17.1000 110.400 TD 25 1000 5 332
2009291N16111 2009 84 WP MM NOT_NAMED 2009-10-19 09:00:00 TS 17.2650 110.392 main 125 116 __PP__________ -1 17.2575 110.377 1 29 1000 17.2725 110.407 TD 25 1000 3 341
2009291N16111 2009 84 WP MM NOT_NAMED 2009-10-19 12:00:00 TS 17.4000 110.350 main 116 100 __OO__________ -1 17.4000 110.300 1 29 1000 17.4000 110.400 TD 25 1000 3 343
2009291N16111 2009 84 WP MM NOT_NAMED 2009-10-19 15:00:00 TS 17.5500 110.296 main 92 84 __PP__________ -1 17.5925 110.235 1 29 1000 17.5075 110.358 TD 25 1000 3 343
2009291N16111 2009 84 WP MM NOT_NAMED 2009-10-19 18:00:00 TS 17.7000 110.250 main 84 69 __OO__________ -1 17.8000 110.200 1 29 1000 17.6000 110.300 TD 25 1000 3 351
2009291N16111 2009 84 WP MM NOT_NAMED 2009-10-19 21:00:00 TS 17.8575 110.244 main 59 49 __PP__________ -1 18.0150 110.215 1 29 1000 17.7000 110.272 TD 25 1001 3 353
2009291N16111 2009 84 WP MM NOT_NAMED 2009-10-20 00:00:00 TS 18.0286 110.200 main 49 24 __OO__________ -1 18.2000 110.200 1 29 1000 17.8000 110.200 TD 25 1002 4 334
2009291N16111 2009 84 WP MM NOT_NAMED 2009-10-20 03:00:00 TS 18.2067 110.068 main 24 11 __PP__________ -1 18.3600 110.088 1 27 1000 17.9001 110.030 TD 25 1003 4 311
2009291N16111 2009 84 WP MM NOT_NAMED 2009-10-20 06:00:00 TS 18.3000 109.875 main 15 0 __OO__________ -1 18.4000 109.900 1 25 1000 18.0000 109.800 TD 25 1004 4 277
2009291N16111 2009 84 WP MM NOT_NAMED 2009-10-20 09:00:00 TS 18.2551 109.662 main 0 0 __P___________ -1 18.2551 109.662 1 22 1002 TD 5 236
2009291N16111 2009 84 WP MM NOT_NAMED 2009-10-20 12:00:00 TS 18.0000 109.400 main 24 __O___________ -1 18.0000 109.400 0 19 1004 7 225

Digital Typhoon Data and Search

About IBTrACS Database

This database is a web-friendly format of International Best Track Archive for Climate Stewardship (IBTrACS), a global best track data archive curated by NOAA dating back to 1842.

Updated: 2021-11-26